Date,TemperatureHighF,TemperatureAvgF,TemperatureLowF,DewpointHighF,DewpointAvgF,DewpointLowF,HumidityHigh,HumidityAvg,HumidityLow,PressureMaxIn,PressureMinIn,WindSpeedMaxMPH,WindSpeedAvgMPH,GustSpeedMaxMPH,PrecipitationSumIn
2013-1-1,13,4,-2,1,-2,-7,80,74,59,0.00,40.00,19,9,32,0.00
2013-1-2,13,4,-8,2,-2,-14,81,74,58,0.00,40.00,16,8,24,0.00
2013-1-3,19,6,-6,-4,-8,-12,77,55,31,0.00,40.00,11,8,19,0.00
2013-1-4,37,9,-15,5,-8,-22,73,49,25,0.00,40.00,9,5,14,0.01
2013-1-5,26,16,5,1,-4,-10,51,41,27,0.00,40.00,18,10,31,0.01
2013-1-6,38,23,8,-3,-7,-11,52,28,15,0.00,40.00,12,8,25,0.00
2013-1-7,33,24,17,5,-5,-8,47,28,18,0.00,40.00,21,10,31,0.00
2013-1-8,26,21,17,15,13,0,87,71,42,0.00,40.00,19,13,36,0.00
2013-1-9,41,27,17,13,10,3,85,53,26,0.00,40.00,12,9,22,0.00
2013-1-10,40,30,24,15,5,0,69,35,18,0.00,40.00,13,8,26,0.00
2013-1-11,25,12,1,16,4,-5,89,69,57,0.00,40.00,22,14,39,0.00
2013-1-12,5,-3,-13,-4,-10,-20,77,70,52,0.00,40.00,12,7,21,0.00
2013-1-13,4,-15,-36,-10,-25,-46,71,61,49,0.00,40.00,8,2,13,0.00
2013-1-14,4,-15,-36,-13,-25,-46,70,58,43,0.00,40.00,14,7,22,0.00
2013-1-15,8,-1,-10,3,-10,-20,82,65,52,0.00,40.00,15,12,26,0.00
2013-1-16,29,16,7,12,8,3,84,72,49,0.00,40.00,15,10,27,0.00
2013-1-17,37,21,9,7,5,1,77,53,26,0.00,40.00,11,8,19,0.00
2013-1-18,35,24,17,6,2,-1,45,37,25,0.00,40.00,18,12,34,0.00
2013-1-19,35,24,17,4,1,-3,46,36,24,0.00,40.00,18,11,30,0.00
2013-1-20,33,22,6,2,-1,-5,61,38,25,0.00,40.00,17,9,29,0.00
2013-1-21,33,23,14,8,3,-1,54,43,32,0.00,40.00,17,11,31,0.00
2013-1-22,40,30,22,-1,-5,-14,36,23,14,0.00,40.00,21,15,36,0.00
2013-1-23,45,33,25,5,-4,-13,37,20,15,0.00,40.00,13,9,24,0.00
2013-1-24,40,32,28,25,13,0,86,49,25,0.00,40.00,25,16,44,0.00
2013-1-25,36,30,24,25,23,22,90,76,58,0.00,40.00,17,12,28,0.00
2013-1-26,38,31,25,27,24,22,92,78,56,0.00,40.00,14,7,26,0.00
2013-1-27,38,30,25,27,23,17,95,77,45,0.00,40.00,15,7,27,0.01
2013-1-28,27,19,6,23,14,0,91,81,72,0.00,40.00,14,8,22,0.01
2013-1-29,15,2,-14,0,-5,-21,81,71,46,0.00,40.00,14,8,23,0.00
2013-1-30,18,11,1,16,7,-4,91,85,78,0.00,40.00,25,16,47,0.00
2013-1-31,22,20,17,18,16,15,91,87,84,0.00,40.00,30,22,51,0.00
2013-2-1,23,20,19,19,17,15,91,88,83,0.00,40.00,21,15,38,0.00
2013-2-2,33,21,14,15,11,2,88,67,47,0.00,40.00,17,12,32,0.02
2013-2-3,37,24,18,4,2,-2,52,38,23,0.00,40.00,16,9,29,0.02
2013-2-4,33,23,15,12,7,-1,65,51,34,0.00,40.00,23,12,39,0.00
2013-2-5,37,27,17,18,14,9,71,57,44,0.00,40.00,17,11,30,0.00
2013-2-6,35,26,14,24,16,7,90,66,48,0.00,40.00,15,11,30,0.00
2013-2-7,32,19,4,11,2,-7,83,54,20,0.00,40.00,16,9,24,0.00
2013-2-8,41,26,13,6,1,-5,55,35,22,0.00,40.00,10,6,21,0.00
2013-2-9,24,18,11,20,13,5,92,83,59,0.00,40.00,12,5,17,0.00
2013-2-10,20,10,-3,10,4,-7,85,80,60,0.00,40.00,7,4,13,0.00
2013-2-11,26,5,-25,11,-4,-34,82,66,48,0.00,40.00,11,5,18,0.13
2013-2-12,19,6,-3,2,-3,-9,76,65,41,0.00,40.00,16,11,25,0.01
2013-2-13,22,15,7,15,10,2,87,80,68,0.00,40.00,24,16,38,0.01
2013-2-14,21,16,13,14,11,7,87,79,62,0.00,40.00,18,13,35,0.01
2013-2-15,18,14,10,9,7,5,84,76,58,0.00,40.00,20,13,35,0.00
2013-2-16,35,23,13,13,8,6,82,55,34,0.00,40.00,19,13,34,0.00
2013-2-17,39,23,12,13,5,-1,83,49,24,0.00,40.00,17,12,33,0.00
2013-2-18,16,11,7,7,2,-3,84,68,45,0.00,40.00,26,12,41,0.00
2013-2-19,38,18,-2,-2,-10,-100,60,36,10,0.00,40.00,10,6,21,0.00
2013-2-20,37,17,-6,12,0,-15,92,53,19,0.00,40.00,8,4,19,0.00
2013-2-21,24,14,8,15,9,4,90,80,56,0.00,40.00,14,6,23,0.08
2013-2-22,18,10,6,5,3,0,84,72,50,0.00,40.00,18,12,31,0.03
2013-2-23,26,16,6,16,7,0,86,70,50,0.00,40.00,19,12,34,0.00
2013-2-24,17,11,-12,9,6,-18,87,80,71,0.00,40.00,10,7,24,0.00
2013-2-25,26,13,-9,5,1,-15,82,61,38,0.00,40.00,14,10,25,0.00
2013-2-26,18,11,3,11,4,-2,84,74,56,0.00,40.00,14,7,24,0.00
2013-2-27,19,8,-10,5,-2,-17,81,66,45,0.00,40.00,15,9,33,0.00
2013-2-28,24,13,3,13,4,-5,87,68,40,0.00,40.00,20,13,33,0.00
2013-3-1,31,22,15,22,17,11,89,79,58,0.00,40.00,22,14,37,0.00
2013-3-2,41,30,23,21,19,15,89,66,42,0.00,40.00,19,14,34,0.00
2013-3-3,37,31,27,25,20,15,83,65,48,0.00,40.00,20,14,36,0.00
2013-3-4,27,15,1,20,8,-4,85,74,52,0.00,40.00,20,14,41,0.00
2013-3-5,39,20,3,-1,-5,-16,77,41,12,0.00,40.00,15,9,27,0.00
2013-3-6,46,31,4,13,5,-8,65,35,23,0.00,40.00,15,9,31,0.00
2013-3-7,48,35,13,14,11,4,70,39,21,0.00,40.00,13,7,27,0.00
2013-3-8,51,28,8,25,10,1,93,52,20,0.00,40.00,9,4,20,0.00
2013-3-9,26,21,12,24,16,5,93,81,57,0.00,40.00,12,7,28,0.00
2013-3-10,33,21,-3,13,9,-8,85,62,43,0.00,40.00,17,9,29,0.01
2013-3-11,29,24,19,23,17,10,93,75,61,0.00,40.00,23,17,40,0.01
2013-3-12,35,26,20,23,19,15,91,75,53,0.00,40.00,20,12,34,0.02
2013-3-13,45,34,26,23,21,16,78,59,33,0.00,40.00,24,15,38,0.02
2013-3-14,50,39,30,20,18,15,60,45,25,0.00,40.00,17,10,31,0.00
2013-3-15,50,40,35,25,15,-100,67,41,28,0.00,40.00,26,14,50,0.00
2013-3-16,41,33,25,25,18,4,83,55,30,0.00,40.00,19,11,31,0.00
2013-3-17,32,24,11,21,10,-4,86,56,32,0.00,40.00,30,16,50,0.00
2013-3-18,23,16,7,17,5,-4,83,64,52,0.00,40.00,20,14,38,0.00
2013-3-19,32,21,10,4,-4,-12,53,34,17,0.00,40.00,24,15,42,0.00
2013-3-20,40,25,1,24,6,-13,86,48,23,0.00,40.00,19,12,34,0.00
2013-3-21,29,24,12,25,18,5,90,76,55,0.00,40.00,25,13,36,0.02
2013-3-22,21,14,6,8,3,-2,84,62,42,0.00,40.00,16,9,26,0.01
2013-3-23,13,6,-16,6,0,-23,84,75,63,0.00,40.00,10,6,18,0.00
2013-3-24,12,2,-18,0,-6,-25,79,68,52,0.00,40.00,18,9,31,0.00
2013-3-25,26,10,-10,1,-4,-17,78,55,29,0.00,40.00,12,6,21,0.12
2013-3-26,37,23,2,19,9,-7,70,56,43,0.00,40.00,16,8,29,0.01
2013-3-27,44,31,21,24,19,15,94,67,34,0.00,40.00,16,8,31,0.00
2013-3-28,50,40,26,22,18,12,80,44,26,0.00,40.00,14,6,26,0.00
2013-3-29,46,34,14,27,22,12,92,64,35,0.00,40.00,16,8,36,0.00
2013-3-30,43,32,14,28,21,12,90,65,45,0.00,40.00,25,12,43,0.00
2013-3-31,49,33,11,21,14,8,92,55,19,0.00,40.00,16,9,31,0.00
2013-4-1,50,31,10,31,20,7,99,70,32,0.00,40.00,8,3,17,0.00
2013-4-2,33,29,17,30,27,15,99,94,86,0.00,40.00,6,2,11,0.02
2013-4-3,49,28,0,30,15,-5,94,66,24,0.00,40.00,23,6,35,0.43
2013-4-4,51,38,26,29,24,16,95,61,25,0.00,40.00,12,8,24,0.01
2013-4-5,50,39,28,31,22,16,98,56,29,0.00,40.00,25,12,36,0.01
2013-4-6,42,32,19,29,22,17,97,68,40,0.00,40.00,17,11,33,0.00
2013-4-7,42,31,26,30,26,22,97,82,50,0.00,40.00,19,11,32,0.06
2013-4-8,50,29,12,29,21,9,95,75,27,0.00,40.00,11,7,25,0.07
2013-4-9,12,4,-6,9,-2,-12,86,77,67,0.00,40.00,14,9,26,0.05
2013-4-10,24,11,-7,15,2,-13,88,68,48,0.00,40.00,20,11,29,0.01
2013-4-11,33,26,18,25,21,15,91,80,65,0.00,40.00,18,13,28,0.01
2013-4-12,39,31,23,24,17,9,89,60,33,0.00,40.00,22,12,37,0.01
2013-4-13,41,32,21,30,18,9,98,60,29,0.00,40.00,23,13,40,0.01
2013-4-14,24,18,12,15,5,-1,86,57,34,0.00,40.00,25,16,44,0.00
2013-4-15,30,18,11,19,14,8,89,81,64,0.00,40.00,7,4,13,0.07
2013-4-16,42,20,9,29,15,5,90,81,59,0.00,40.00,10,6,27,0.35
2013-4-17,14,11,-3,11,7,-8,88,83,77,0.00,40.00,11,7,20,0.01
2013-4-18,18,7,-11,9,0,-18,82,72,56,0.00,40.00,22,11,38,0.00
2013-4-19,35,23,13,22,14,9,91,69,43,0.00,40.00,21,14,36,0.11
2013-4-20,38,29,23,27,24,21,96,82,50,0.00,40.00,14,11,28,0.01
2013-4-21,42,32,25,26,21,15,96,66,34,0.00,40.00,16,11,26,0.08
2013-4-22,30,22,9,27,18,5,95,86,74,0.00,40.00,11,8,21,0.14
2013-4-23,25,15,5,18,7,1,85,70,46,0.00,40.00,19,7,28,0.15
2013-4-24,35,22,-6,10,4,-11,81,49,28,0.00,40.00,23,11,40,0.01
2013-4-25,48,33,17,15,7,2,72,36,17,0.00,40.00,14,8,28,0.00
2013-4-26,57,33,5,15,8,2,87,47,14,0.00,40.00,9,3,22,0.00
2013-4-27,53,38,15,16,13,8,87,42,21,0.00,40.00,18,9,31,0.00
2013-4-28,57,45,33,30,22,15,67,41,24,0.00,40.00,16,11,34,0.00
2013-4-29,54,45,34,28,20,13,77,41,21,0.00,40.00,23,14,38,0.00
2013-4-30,50,38,28,31,26,21,98,67,39,0.00,40.00,16,7,28,0.01
2013-5-1,27,20,6,24,16,2,94,85,74,0.00,40.00,11,6,23,0.01
2013-5-2,35,16,-14,18,3,-21,82,58,33,0.00,40.00,15,5,25,0.31
2013-5-3,53,34,19,24,11,7,74,42,18,0.00,40.00,12,7,22,0.01
2013-5-4,46,36,29,25,23,20,85,60,38,0.00,40.00,11,7,23,0.00
2013-5-5,51,36,23,34,26,20,94,70,35,0.00,40.00,8,4,47,0.05
2013-5-6,54,40,26,32,28,23,96,68,35,0.00,40.00,8,4,18,0.01
2013-5-7,55,37,26,33,29,22,99,78,32,0.00,40.00,8,4,20,0.05
2013-5-8,49,34,24,36,30,23,99,87,49,0.00,40.00,13,4,22,0.46
2013-5-9,49,37,26,35,31,25,99,83,52,0.00,40.00,9,5,20,0.19
2013-5-10,54,40,21,34,23,-100,98,59,27,0.00,40.00,9,4,24,0.01
2013-5-11,57,39,21,34,24,17,95,61,22,0.00,40.00,14,5,31,0.01
2013-5-12,62,45,25,29,26,22,93,55,25,0.00,40.00,13,6,26,0.00
2013-5-13,67,49,27,37,29,25,95,55,21,0.00,40.00,13,5,21,0.00
2013-5-14,67,53,31,33,28,25,87,44,21,0.00,40.00,11,5,23,0.00
2013-5-15,65,48,31,40,36,29,94,64,30,0.00,40.00,9,5,18,0.01
2013-5-16,63,45,34,39,15,-100,94,59,21,0.00,40.00,16,8,30,0.01
2013-5-17,66,49,29,35,19,-100,96,45,13,0.00,40.00,13,6,27,0.00
2013-5-18,52,39,28,35,29,15,95,70,30,0.00,40.00,16,8,27,0.03
2013-5-19,44,37,30,34,31,28,98,80,54,0.00,40.00,21,13,36,0.02
2013-5-20,42,35,30,35,31,24,98,85,71,0.00,40.00,17,10,31,0.20
2013-5-21,50,37,26,28,26,24,93,66,38,0.00,40.00,18,11,30,0.01
2013-5-22,59,46,26,35,28,18,93,54,20,0.00,40.00,12,6,22,0.00
2013-5-23,67,51,28,39,31,16,96,56,14,0.00,40.00,13,6,28,0.00
2013-5-24,65,50,30,32,21,14,96,39,16,0.00,40.00,14,7,26,0.00
2013-5-25,67,49,25,26,17,8,90,37,11,0.00,40.00,13,6,28,0.00
2013-5-26,68,48,24,26,19,13,87,42,13,0.00,40.00,10,5,32,0.00
2013-5-27,60,46,25,25,20,16,89,43,19,0.00,40.00,14,7,33,0.00
2013-5-28,62,45,23,32,24,19,85,49,24,0.00,40.00,11,6,26,0.00
2013-5-29,45,38,33,37,32,27,97,81,55,0.00,40.00,20,10,38,0.21
2013-5-30,47,39,32,31,24,15,93,58,31,0.00,40.00,28,19,54,0.01
2013-5-31,48,40,30,26,19,16,65,44,30,0.00,40.00,27,17,43,0.00
2013-6-1,54,40,27,35,29,25,94,67,41,0.00,40.00,14,7,27,0.00
2013-6-2,68,49,21,30,23,16,94,47,16,0.00,40.00,14,7,28,0.00
2013-6-3,64,55,33,30,20,8,45,26,15,0.00,40.00,21,11,36,0.00
2013-6-4,64,45,21,39,21,14,91,47,16,0.00,40.00,16,8,33,0.00
2013-6-5,59,46,28,36,29,20,95,60,24,0.00,40.00,14,6,24,0.00
2013-6-6,61,46,23,30,26,21,91,51,27,0.00,40.00,8,3,17,0.00
2013-6-7,67,52,29,35,30,26,93,50,23,0.00,40.00,16,7,28,0.00
2013-6-8,63,54,32,40,32,25,78,43,25,0.00,40.00,19,11,35,0.00
2013-6-9,73,55,25,32,28,22,90,43,19,0.00,40.00,15,8,33,0.00
2013-6-10,79,65,50,33,29,23,45,28,13,0.00,40.00,19,8,45,0.00
2013-6-11,72,63,49,29,21,15,45,22,12,0.00,40.00,19,11,33,0.00
2013-6-12,75,61,29,31,23,17,71,26,13,0.00,40.00,12,7,27,0.00
2013-6-13,74,65,52,32,27,20,36,24,15,0.00,40.00,15,9,33,0.00
2013-6-14,70,58,42,29,23,14,50,29,12,0.00,40.00,17,10,34,0.00
2013-6-15,71,57,24,23,18,13,81,26,12,0.00,40.00,11,6,25,0.00
2013-6-16,67,51,27,45,30,17,87,52,17,0.00,40.00,11,6,24,0.15
2013-6-17,67,52,29,43,34,25,97,55,22,0.00,40.00,10,5,32,0.01
2013-6-18,69,54,28,39,32,24,98,52,18,0.00,40.00,7,4,21,0.00
2013-6-19,74,58,28,39,22,9,96,38,9,0.00,40.00,13,7,27,0.00
2013-6-20,70,52,30,21,17,12,58,26,13,0.00,40.00,11,6,35,0.00
2013-6-27,80,66,33,35,30,25,89,33,14,0.00,40.00,13,7,29,0.00
2013-6-28,81,65,34,46,33,24,83,39,12,0.00,40.00,15,7,27,0.00
2013-6-29,76,62,36,49,42,35,98,54,23,0.00,40.00,10,4,21,0.11
2013-6-30,71,58,41,53,47,40,99,72,35,0.00,40.00,10,4,21,0.11
2013-7-1,70,55,32,52,41,32,99,66,34,0.00,40.00,9,4,22,0.04
2013-7-2,71,56,30,50,36,29,98,56,24,0.00,40.00,9,5,19,0.01
2013-7-3,74,57,31,48,37,27,97,58,18,0.00,40.00,12,5,26,0.13
2013-7-4,75,57,38,47,43,37,96,64,27,0.00,40.00,13,5,21,0.07
2013-7-5,71,58,47,48,46,42,98,69,38,0.00,40.00,12,6,23,0.03
2013-7-6,72,58,46,48,43,35,97,64,26,0.00,40.00,12,5,30,0.06
2013-7-7,76,61,43,45,40,31,95,54,19,0.00,40.00,12,6,28,0.01
2013-7-8,71,59,38,51,42,34,93,56,30,0.00,40.00,17,8,28,0.25
2013-7-9,74,62,34,41,36,29,98,44,20,0.00,40.00,12,6,24,0.23
2013-7-10,79,63,35,48,32,-100,95,40,14,0.00,40.00,11,4,21,0.00
2013-7-11,84,65,37,47,37,28,97,46,13,0.00,40.00,10,5,21,0.00
2013-7-12,75,62,50,55,47,41,97,63,32,0.00,40.00,14,8,27,0.27
2013-7-13,71,59,49,55,49,47,98,73,48,0.00,40.00,12,6,24,0.08
2013-7-14,68,56,41,53,49,41,99,78,51,0.00,40.00,9,5,17,0.05
2013-7-15,72,57,39,55,48,38,100,74,42,0.00,40.00,9,4,20,0.00
2013-7-16,73,65,44,43,39,34,89,43,25,0.00,40.00,11,7,21,0.00
2013-7-17,76,59,34,56,45,33,97,63,36,0.00,40.00,13,4,19,0.05
2013-7-18,73,60,48,58,49,44,99,69,38,0.00,40.00,13,5,20,0.15
2013-7-19,72,58,37,52,44,36,99,68,34,0.00,40.00,8,4,17,0.12
2013-7-20,73,57,39,48,42,-100,97,64,32,0.00,40.00,9,4,20,0.12
2013-7-21,77,64,37,42,28,16,96,35,10,0.00,40.00,18,9,33,0.00
2013-7-22,79,71,31,31,13,5,75,14,6,0.00,40.00,19,11,30,0.00
2013-7-23,77,60,37,50,21,4,88,31,6,0.00,40.00,17,8,30,0.00
2013-7-24,78,56,33,50,42,27,98,68,15,0.00,40.00,9,3,18,0.07
2013-7-25,61,51,43,51,48,42,97,89,66,0.00,40.00,10,4,16,0.73
2013-7-26,70,54,35,49,41,35,99,68,31,0.00,40.00,8,3,17,0.01
2013-7-27,73,56,35,48,39,32,98,62,22,0.00,40.00,14,5,33,0.08
2013-7-28,65,52,46,55,48,44,98,87,51,0.00,40.00,11,5,20,0.44
2013-7-29,57,50,45,46,43,38,93,79,51,0.00,40.00,11,6,27,0.13
2013-7-30,68,55,43,46,43,40,98,68,36,0.00,40.00,13,7,23,0.03
2013-7-31,73,57,35,43,39,34,97,58,25,0.00,40.00,15,5,29,0.01
2013-8-1,71,54,36,46,42,35,97,68,31,0.00,40.00,10,4,36,0.02
2013-8-2,73,61,48,46,40,33,81,50,24,0.00,40.00,14,9,24,0.01
2013-8-3,73,58,40,42,39,35,92,52,25,0.00,40.00,11,5,29,0.00
2013-8-4,70,59,51,44,40,35,65,49,29,0.00,40.00,12,6,20,0.11
2013-8-5,69,57,48,47,42,40,89,57,38,0.00,40.00,12,8,24,0.28
2013-8-6,68,57,47,44,40,35,81,57,30,0.00,40.00,10,7,30,0.06
2013-8-7,68,54,34,44,38,33,96,58,31,0.00,40.00,7,4,17,0.00
2013-8-8,65,48,35,46,38,34,97,74,34,0.00,40.00,10,3,18,0.08
2013-8-9,63,49,29,48,39,28,97,74,39,0.00,40.00,9,3,21,0.41
2013-8-10,69,55,35,41,36,31,97,54,25,0.00,40.00,12,6,21,0.16
2013-8-11,66,53,42,43,39,36,91,62,36,0.00,40.00,7,3,20,0.00
2013-8-21,73,60,43,48,43,39,97,56,31,0.00,40.00,11,5,20,0.04
2013-8-22,68,54,39,52,45,38,99,75,40,0.00,40.00,5,2,14,0.19
2013-8-23,70,56,44,49,46,42,99,73,36,0.00,40.00,11,7,21,0.50
2013-8-24,67,54,45,48,45,44,95,75,46,0.00,40.00,12,6,22,0.19
2013-8-25,67,53,43,52,46,41,98,79,46,0.00,40.00,8,4,18,0.05
2013-8-26,68,57,45,50,48,44,99,73,47,0.00,40.00,11,7,22,0.03
2013-8-27,72,57,48,50,48,46,94,74,41,0.00,40.00,9,6,21,0.00
2013-9-24,60,46,35,31,26,16,76,49,23,0.00,40.00,12,9,22,0.01
2013-9-25,64,52,31,32,20,12,95,31,17,0.00,40.00,16,11,36,0.00
2013-9-26,63,43,25,36,28,20,97,65,19,0.00,40.00,14,6,28,0.00
2013-9-27,37,32,26,35,30,24,95,93,86,0.00,40.00,15,7,27,0.19
2013-9-28,46,33,23,27,23,18,92,69,45,0.00,40.00,18,13,35,0.02
2013-9-29,54,44,35,24,19,16,63,39,24,0.00,40.00,20,14,34,0.01
2013-9-30,61,50,42,29,24,18,43,35,28,0.00,40.00,19,12,35,0.00
2013-12-26,32,21,14,8,2,-4,55,43,32,0.00,40.00,15,11,29,0.00
2013-12-27,37,27,20,14,12,7,62,53,38,0.00,40.00,14,10,22,0.00
2013-12-28,33,24,12,16,13,9,88,64,40,0.00,40.00,13,8,22,0.00
2013-12-29,19,12,4,9,3,-1,87,69,51,0.00,40.00,18,10,28,0.00
2013-12-30,26,19,14,12,9,7,82,67,49,0.00,40.00,21,12,35,0.00
2013-12-31,30,25,20,22,18,11,93,77,61,0.00,40.00,24,18,41,0.01
2014-1-1,24,18,12,23,15,9,94,89,84,0.00,40.00,20,13,33,0.00